createdAt,value
2023-12-31T00:00:00.777Z,3.4
2023-12-31T00:01:04.141Z,3.4
2023-12-31T00:02:00.656Z,3.4
2023-12-31T00:03:01.147Z,3.3
2023-12-31T00:04:00.739Z,3.3
2023-12-31T00:05:00.693Z,3.4
2023-12-31T00:06:00.703Z,3.4
2023-12-31T00:07:00.794Z,3.4
2023-12-31T00:08:00.669Z,3.4
2023-12-31T00:09:00.660Z,3.4
2023-12-31T00:10:01.893Z,3.4
2023-12-31T00:11:00.653Z,3.4
2023-12-31T00:12:00.656Z,3.4
2023-12-31T00:13:00.946Z,3.4
2023-12-31T00:14:00.654Z,3.4
2023-12-31T00:15:00.808Z,3.4
2023-12-31T00:16:00.685Z,3.4
2023-12-31T00:17:00.652Z,3.5
2023-12-31T00:18:00.779Z,3.5
2023-12-31T00:19:01.912Z,3.5
2023-12-31T00:20:00.934Z,3.5
2023-12-31T00:21:00.747Z,3.5
2023-12-31T00:22:00.786Z,3.5
2023-12-31T00:23:00.921Z,3.5
2023-12-31T00:24:00.658Z,3.5
2023-12-31T00:25:00.687Z,3.5
2023-12-31T00:26:00.664Z,3.6
2023-12-31T00:27:00.751Z,3.6
2023-12-31T00:28:00.661Z,3.6
2023-12-31T00:29:00.702Z,3.7
2023-12-31T00:30:00.730Z,3.7
2023-12-31T00:31:00.703Z,3.7
2023-12-31T00:32:00.682Z,3.7
2023-12-31T00:33:00.757Z,3.7
2023-12-31T00:34:00.738Z,3.7
2023-12-31T00:35:00.704Z,3.6
2023-12-31T00:36:00.698Z,3.5
2023-12-31T00:37:00.723Z,3.5
2023-12-31T00:38:03.263Z,3.5
2023-12-31T00:39:00.664Z,3.4
2023-12-31T00:40:00.724Z,3.4
2023-12-31T00:41:00.673Z,3.3
2023-12-31T00:42:00.740Z,3.3
2023-12-31T00:43:00.879Z,3.3
2023-12-31T00:44:00.683Z,3.3
2023-12-31T00:45:00.640Z,3.3
2023-12-31T00:46:00.685Z,3.2
2023-12-31T00:47:00.657Z,3.2
2023-12-31T00:48:00.728Z,3.2
2023-12-31T00:49:00.735Z,3.2
2023-12-31T00:50:00.733Z,3.2
2023-12-31T00:51:01.799Z,3.2
2023-12-31T00:52:00.760Z,3.3
2023-12-31T00:53:01.199Z,3.3
2023-12-31T00:54:00.688Z,3.4
2023-12-31T00:55:00.768Z,3.4
2023-12-31T00:56:00.690Z,3.4
2023-12-31T00:57:00.669Z,3.3
2023-12-31T00:58:00.666Z,3.4
2023-12-31T00:59:00.927Z,3.4
2023-12-31T01:00:00.948Z,3.4
2023-12-31T01:01:00.745Z,3.5
2023-12-31T01:02:00.713Z,3.5
2023-12-31T01:03:00.901Z,3.6
2023-12-31T01:04:00.650Z,3.7
2023-12-31T01:05:00.844Z,3.7
2023-12-31T01:06:04.649Z,3.7
2023-12-31T01:07:00.664Z,3.7
2023-12-31T01:08:01.366Z,3.7
2023-12-31T01:09:00.720Z,3.7
2023-12-31T01:10:00.857Z,3.7
2023-12-31T01:11:00.764Z,3.6
2023-12-31T01:12:00.694Z,3.6
2023-12-31T01:13:00.738Z,3.6
2023-12-31T01:14:00.796Z,3.6
2023-12-31T01:15:00.687Z,3.6
2023-12-31T01:16:00.728Z,3.5
2023-12-31T01:17:00.693Z,3.5
2023-12-31T01:18:00.705Z,3.5
2023-12-31T01:19:00.776Z,3.4
2023-12-31T01:20:00.692Z,3.4
2023-12-31T01:21:00.936Z,3.4
2023-12-31T01:22:00.729Z,3.3
2023-12-31T01:23:00.826Z,3.3
2023-12-31T01:24:00.716Z,3.3
2023-12-31T01:25:00.651Z,3.3
2023-12-31T01:26:00.677Z,3.2
2023-12-31T01:27:00.696Z,3.2
2023-12-31T01:28:00.660Z,3.2
2023-12-31T01:29:00.658Z,3.2
2023-12-31T01:30:00.695Z,3.2
2023-12-31T01:31:00.738Z,3.2
2023-12-31T01:32:00.650Z,3.1
2023-12-31T01:33:00.904Z,3.1
2023-12-31T01:34:00.680Z,3.1
2023-12-31T01:35:00.806Z,3.1
2023-12-31T01:36:00.649Z,3.0
2023-12-31T01:37:00.795Z,3.0
2023-12-31T01:38:00.685Z,3.0
2023-12-31T01:39:00.658Z,2.9
2023-12-31T01:40:00.709Z,2.9
2023-12-31T01:41:00.690Z,3.0
2023-12-31T01:42:00.692Z,3.0
2023-12-31T01:43:00.827Z,2.9
2023-12-31T01:44:01.782Z,3.0
2023-12-31T01:45:01.184Z,3.0
2023-12-31T01:46:01.399Z,3.0
2023-12-31T01:47:00.676Z,3.1
2023-12-31T01:48:00.812Z,3.2
2023-12-31T01:49:01.185Z,3.2
2023-12-31T01:50:02.318Z,3.1
2023-12-31T01:51:01.705Z,3.1
2023-12-31T01:52:01.455Z,3.1
2023-12-31T01:53:00.943Z,3.1
2023-12-31T01:54:03.676Z,3.0
2023-12-31T01:55:02.931Z,3.0
2023-12-31T01:56:01.030Z,3.0
2023-12-31T01:57:01.035Z,3.0
2023-12-31T01:58:01.447Z,3.0
2023-12-31T01:59:01.720Z,2.9
2023-12-31T02:00:02.139Z,2.9
2023-12-31T02:01:00.838Z,2.8
2023-12-31T02:02:00.774Z,2.8
2023-12-31T02:03:01.086Z,2.8
2023-12-31T02:04:00.683Z,2.8
2023-12-31T02:05:01.048Z,2.8
2023-12-31T02:06:00.712Z,2.7
2023-12-31T02:07:01.069Z,2.7
2023-12-31T02:08:00.706Z,2.6
2023-12-31T02:09:00.703Z,2.6
2023-12-31T02:10:00.754Z,2.6
2023-12-31T02:11:00.756Z,2.6
2023-12-31T02:12:00.784Z,2.6
2023-12-31T02:13:01.260Z,2.5
2023-12-31T02:14:00.698Z,2.6
2023-12-31T02:15:00.700Z,2.5
2023-12-31T02:16:00.671Z,2.5
2023-12-31T02:17:00.670Z,2.5
2023-12-31T02:18:02.663Z,2.5
2023-12-31T02:19:00.655Z,2.5
2023-12-31T02:20:00.952Z,2.5
2023-12-31T02:21:00.674Z,2.5
2023-12-31T02:22:01.548Z,2.4
2023-12-31T02:23:00.822Z,2.4
2023-12-31T02:24:01.054Z,2.4
2023-12-31T02:25:05.097Z,2.4
2023-12-31T02:26:10.034Z,2.4
2023-12-31T02:27:00.693Z,2.4
2023-12-31T02:28:00.675Z,2.4
2023-12-31T02:29:00.664Z,2.4
2023-12-31T02:30:00.756Z,2.4
2023-12-31T02:31:00.953Z,2.4
2023-12-31T02:32:00.662Z,2.3
2023-12-31T02:33:00.824Z,2.3
2023-12-31T02:34:00.844Z,2.4
2023-12-31T02:35:00.712Z,2.4
2023-12-31T02:36:00.743Z,2.4
2023-12-31T02:37:00.710Z,2.4
2023-12-31T02:38:00.711Z,2.4
2023-12-31T02:39:00.705Z,2.4
2023-12-31T02:40:00.663Z,2.4
2023-12-31T02:41:00.672Z,2.3
2023-12-31T02:42:00.671Z,2.3
2023-12-31T02:43:00.994Z,2.3
2023-12-31T02:44:01.689Z,2.3
2023-12-31T02:45:00.708Z,2.3
2023-12-31T02:46:00.663Z,2.3
2023-12-31T02:47:00.689Z,2.3
2023-12-31T02:48:01.031Z,2.3
2023-12-31T02:49:00.745Z,2.3
2023-12-31T02:50:00.686Z,2.3
2023-12-31T02:51:00.906Z,2.3
2023-12-31T02:52:00.658Z,2.3
2023-12-31T02:53:00.715Z,2.3
2023-12-31T02:54:00.712Z,2.3
2023-12-31T02:55:00.727Z,2.2
2023-12-31T02:56:00.743Z,2.3
2023-12-31T02:57:00.769Z,2.3
2023-12-31T02:58:00.694Z,2.3
2023-12-31T02:59:00.658Z,2.3
2023-12-31T03:00:00.730Z,2.2
2023-12-31T03:01:00.921Z,2.2
2023-12-31T03:02:01.010Z,2.2
2023-12-31T03:03:01.052Z,2.2
2023-12-31T03:04:00.666Z,2.2
2023-12-31T03:05:00.749Z,2.2
2023-12-31T03:06:00.787Z,2.2
2023-12-31T03:07:00.733Z,2.3
2023-12-31T03:08:00.697Z,2.3
2023-12-31T03:09:00.662Z,2.3
2023-12-31T03:10:01.066Z,2.3
2023-12-31T03:11:00.705Z,2.3
2023-12-31T03:12:00.674Z,2.3
2023-12-31T03:13:00.884Z,2.3
2023-12-31T03:14:00.742Z,2.3
2023-12-31T03:15:00.670Z,2.2
2023-12-31T03:16:04.970Z,2.2
2023-12-31T03:17:00.760Z,2.3
2023-12-31T03:18:00.912Z,2.2
2023-12-31T03:19:00.715Z,2.2
2023-12-31T03:20:00.670Z,2.2
2023-12-31T03:21:00.672Z,2.2
2023-12-31T03:22:00.801Z,2.2
2023-12-31T03:23:00.963Z,2.2
2023-12-31T03:24:00.661Z,2.1
2023-12-31T03:25:00.721Z,2.1
2023-12-31T03:26:00.665Z,2.1
2023-12-31T03:27:00.665Z,2.1
2023-12-31T03:28:00.740Z,2.1
2023-12-31T03:29:01.164Z,2.1
2023-12-31T03:30:00.655Z,2.1
2023-12-31T03:31:00.719Z,2.1
2023-12-31T03:32:01.059Z,2.1
2023-12-31T03:33:00.814Z,2.2
2023-12-31T03:34:00.905Z,2.3
2023-12-31T03:35:00.753Z,2.3
2023-12-31T03:36:00.672Z,2.3
2023-12-31T03:37:00.651Z,2.3
2023-12-31T03:38:00.722Z,2.3
2023-12-31T03:39:01.312Z,2.3
2023-12-31T03:40:00.714Z,2.3
2023-12-31T03:41:00.679Z,2.3
2023-12-31T03:42:00.665Z,2.3
2023-12-31T03:43:00.990Z,2.3
2023-12-31T03:44:00.674Z,2.3
2023-12-31T03:45:00.742Z,2.3
2023-12-31T03:46:00.768Z,2.3
2023-12-31T03:47:00.686Z,2.3
2023-12-31T03:48:00.765Z,2.3
2023-12-31T03:49:00.851Z,2.3
2023-12-31T03:50:00.702Z,2.3
2023-12-31T03:51:00.690Z,2.2
2023-12-31T03:52:00.705Z,2.3
2023-12-31T03:53:00.752Z,2.3
2023-12-31T03:54:00.736Z,2.3
2023-12-31T03:55:00.697Z,2.3
2023-12-31T03:56:00.845Z,2.3
2023-12-31T03:57:00.655Z,2.2
2023-12-31T03:58:00.660Z,2.2
2023-12-31T03:59:00.661Z,2.2
2023-12-31T04:00:00.731Z,2.2
2023-12-31T04:01:00.783Z,2.2
2023-12-31T04:02:00.759Z,2.2
2023-12-31T04:03:01.800Z,2.2
2023-12-31T04:04:00.687Z,2.2
2023-12-31T04:05:02.836Z,2.2
2023-12-31T04:06:00.870Z,2.2
2023-12-31T04:07:00.656Z,2.2
2023-12-31T04:08:00.736Z,2.2
2023-12-31T04:09:00.650Z,2.2
2023-12-31T04:10:01.048Z,2.2
2023-12-31T04:11:00.698Z,2.2
2023-12-31T04:12:00.867Z,2.2
2023-12-31T04:13:00.830Z,2.2
2023-12-31T04:14:00.672Z,2.1
2023-12-31T04:15:00.652Z,2.1
2023-12-31T04:16:00.688Z,2.1
2023-12-31T04:17:00.705Z,2.1
2023-12-31T04:18:00.759Z,2.1
2023-12-31T04:19:00.710Z,2.1
2023-12-31T04:20:01.076Z,2.1
2023-12-31T04:21:00.805Z,2.1
2023-12-31T04:22:00.666Z,2.1
2023-12-31T04:23:00.954Z,2.1
2023-12-31T04:24:00.727Z,2.1
2023-12-31T04:25:00.674Z,2.1
2023-12-31T04:26:00.676Z,2.1
2023-12-31T04:27:00.685Z,2.1
2023-12-31T04:28:00.730Z,2.1
2023-12-31T04:29:00.681Z,2.1
2023-12-31T04:30:00.696Z,2.1
2023-12-31T04:31:02.663Z,2.1
2023-12-31T04:32:00.734Z,2.1
2023-12-31T04:33:00.874Z,2.1
2023-12-31T04:34:00.740Z,2.0
2023-12-31T04:35:01.035Z,2.0
2023-12-31T04:36:04.393Z,2.0
2023-12-31T04:37:00.719Z,2.0
2023-12-31T04:38:00.807Z,2.0
2023-12-31T04:39:00.660Z,2.0
2023-12-31T04:40:00.725Z,2.0
2023-12-31T04:41:00.691Z,2.0
2023-12-31T04:42:00.721Z,2.0
2023-12-31T04:43:00.968Z,2.0
2023-12-31T04:44:00.653Z,1.9
2023-12-31T04:45:03.685Z,1.9
2023-12-31T04:46:04.147Z,1.9
2023-12-31T04:47:00.680Z,1.9
2023-12-31T04:48:00.750Z,1.9
2023-12-31T04:49:00.645Z,1.8
2023-12-31T04:50:00.869Z,1.8
2023-12-31T04:51:00.645Z,1.8
2023-12-31T04:52:00.730Z,1.8
2023-12-31T04:53:00.760Z,1.8
2023-12-31T04:54:00.676Z,1.8
2023-12-31T04:55:00.671Z,1.8
2023-12-31T04:56:00.745Z,1.9
2023-12-31T04:57:00.765Z,1.9
2023-12-31T04:58:00.694Z,1.9
2023-12-31T04:59:00.708Z,1.9
2023-12-31T05:00:00.762Z,1.9
2023-12-31T05:01:00.682Z,1.8
2023-12-31T05:02:00.751Z,1.8
2023-12-31T05:03:00.709Z,1.8
2023-12-31T05:04:00.761Z,1.8
2023-12-31T05:05:00.782Z,1.8
2023-12-31T05:06:00.643Z,1.8
2023-12-31T05:07:00.705Z,1.8
2023-12-31T05:08:00.665Z,1.8
2023-12-31T05:09:00.654Z,1.8
2023-12-31T05:10:00.689Z,1.8
2023-12-31T05:11:00.688Z,1.8
2023-12-31T05:12:00.687Z,1.8
2023-12-31T05:13:00.824Z,1.8
2023-12-31T05:14:00.710Z,1.8
2023-12-31T05:15:00.806Z,1.8
2023-12-31T05:16:01.541Z,1.8
2023-12-31T05:17:00.740Z,1.8
2023-12-31T05:18:00.734Z,1.8
2023-12-31T05:19:01.115Z,1.8
2023-12-31T05:20:00.712Z,1.8
2023-12-31T05:21:01.590Z,1.8
2023-12-31T05:22:00.697Z,1.8
2023-12-31T05:23:00.821Z,1.8
2023-12-31T05:24:00.654Z,1.8
2023-12-31T05:25:00.657Z,1.8
2023-12-31T05:26:00.662Z,1.8
2023-12-31T05:27:00.679Z,1.8
2023-12-31T05:28:00.708Z,1.8
2023-12-31T05:29:01.242Z,1.8
2023-12-31T05:30:00.757Z,1.8
2023-12-31T05:31:00.726Z,1.8
2023-12-31T05:32:00.699Z,1.8
2023-12-31T05:33:00.794Z,1.8
2023-12-31T05:34:00.721Z,1.8
2023-12-31T05:35:00.688Z,1.8
2023-12-31T05:36:00.680Z,1.8
2023-12-31T05:37:00.651Z,1.8
2023-12-31T05:38:00.682Z,1.8
2023-12-31T05:39:00.648Z,1.8
2023-12-31T05:40:00.723Z,1.8
2023-12-31T05:41:00.722Z,1.8
2023-12-31T05:42:00.733Z,1.8
2023-12-31T05:43:00.698Z,1.8
2023-12-31T05:44:00.700Z,1.8
2023-12-31T05:45:00.687Z,1.8
2023-12-31T05:46:00.725Z,1.8
2023-12-31T05:47:00.808Z,1.8
2023-12-31T05:48:00.808Z,1.8
2023-12-31T05:49:00.826Z,1.8
2023-12-31T05:50:00.817Z,1.8
2023-12-31T05:51:00.776Z,1.8
2023-12-31T05:52:00.691Z,1.8
2023-12-31T05:53:00.688Z,1.8
2023-12-31T05:54:00.751Z,1.8
2023-12-31T05:55:00.764Z,1.8
2023-12-31T05:56:00.690Z,1.8
2023-12-31T05:57:00.669Z,1.8
2023-12-31T05:58:00.687Z,1.8
2023-12-31T05:59:00.719Z,1.7
2023-12-31T06:00:01.425Z,1.7
2023-12-31T06:01:00.989Z,1.7
2023-12-31T06:02:00.746Z,1.7
2023-12-31T06:03:00.801Z,1.7
2023-12-31T06:04:00.714Z,1.7
2023-12-31T06:05:00.682Z,1.7
2023-12-31T06:06:00.845Z,1.7
2023-12-31T06:07:00.657Z,1.6
2023-12-31T06:08:00.710Z,1.6
2023-12-31T06:09:00.685Z,1.7
2023-12-31T06:10:00.658Z,1.7
2023-12-31T06:11:00.654Z,1.7
2023-12-31T06:12:00.712Z,1.7
2023-12-31T06:13:00.727Z,1.7
2023-12-31T06:14:00.665Z,1.7
2023-12-31T06:15:00.731Z,1.6
2023-12-31T06:16:00.681Z,1.6
2023-12-31T06:17:00.668Z,1.6
2023-12-31T06:18:00.817Z,1.6
2023-12-31T06:19:00.703Z,1.6
2023-12-31T06:20:01.376Z,1.6
2023-12-31T06:21:00.710Z,1.6
2023-12-31T06:22:00.703Z,1.6
2023-12-31T06:23:00.722Z,1.6
2023-12-31T06:24:00.716Z,1.6
2023-12-31T06:25:01.046Z,1.6
2023-12-31T06:26:00.655Z,1.6
2023-12-31T06:27:00.669Z,1.6
2023-12-31T06:28:00.660Z,1.6
2023-12-31T06:29:00.705Z,1.6
2023-12-31T06:30:00.848Z,1.5
2023-12-31T06:31:00.818Z,1.5
2023-12-31T06:32:00.688Z,1.5
2023-12-31T06:33:00.825Z,1.5
2023-12-31T06:34:00.652Z,1.5
2023-12-31T06:35:01.971Z,1.5
2023-12-31T06:36:00.667Z,1.5
2023-12-31T06:37:00.757Z,1.5
2023-12-31T06:38:00.658Z,1.5
2023-12-31T06:39:00.687Z,1.5
2023-12-31T06:40:00.659Z,1.5
2023-12-31T06:41:08.106Z,1.4
2023-12-31T06:42:00.654Z,1.4
2023-12-31T06:43:00.857Z,1.5
2023-12-31T06:44:00.734Z,1.5
2023-12-31T06:45:00.814Z,1.5
2023-12-31T06:46:01.718Z,1.4
2023-12-31T06:47:00.700Z,1.4
2023-12-31T06:48:00.885Z,1.4
2023-12-31T06:49:00.738Z,1.4
2023-12-31T06:50:00.701Z,1.4
2023-12-31T06:51:00.687Z,1.4
2023-12-31T06:52:00.662Z,1.4
2023-12-31T06:53:00.774Z,1.4
2023-12-31T06:54:00.671Z,1.4
2023-12-31T06:55:00.662Z,1.4
2023-12-31T06:56:08.301Z,1.4
2023-12-31T06:57:00.775Z,1.4
2023-12-31T06:58:00.655Z,1.3
2023-12-31T06:59:00.737Z,1.3
2023-12-31T07:00:00.713Z,1.3
2023-12-31T07:01:00.678Z,1.3
2023-12-31T07:02:00.705Z,1.3
2023-12-31T07:03:00.780Z,1.3
2023-12-31T07:04:00.846Z,1.3
2023-12-31T07:05:00.859Z,1.3
2023-12-31T07:06:00.919Z,1.4
2023-12-31T07:07:00.714Z,1.3
2023-12-31T07:08:00.807Z,1.3
2023-12-31T07:09:00.676Z,1.3
2023-12-31T07:10:00.704Z,1.3
2023-12-31T07:11:00.816Z,1.3
2023-12-31T07:12:00.652Z,1.3
2023-12-31T07:13:00.718Z,1.3
2023-12-31T07:14:00.708Z,1.3
2023-12-31T07:15:00.783Z,1.3
2023-12-31T07:16:00.768Z,1.3
2023-12-31T07:17:00.847Z,1.3
2023-12-31T07:18:01.372Z,1.3
2023-12-31T07:19:00.805Z,1.3
2023-12-31T07:20:00.960Z,1.3
2023-12-31T07:21:00.664Z,1.3
2023-12-31T07:22:00.723Z,1.3
2023-12-31T07:23:00.862Z,1.3
2023-12-31T07:24:00.687Z,1.3
2023-12-31T07:25:01.069Z,1.3
2023-12-31T07:26:00.703Z,1.3
2023-12-31T07:27:00.669Z,1.3
2023-12-31T07:28:00.699Z,1.3
2023-12-31T07:29:09.768Z,1.4
2023-12-31T07:30:00.698Z,1.4
2023-12-31T07:31:00.674Z,1.4
2023-12-31T07:32:00.719Z,1.4
2023-12-31T07:33:00.722Z,1.4
2023-12-31T07:34:00.843Z,1.4
2023-12-31T07:35:00.748Z,1.5
2023-12-31T07:36:00.644Z,1.5
2023-12-31T07:37:00.692Z,1.5
2023-12-31T07:38:01.120Z,1.5
2023-12-31T07:39:00.681Z,1.5
2023-12-31T07:40:03.931Z,1.6
2023-12-31T07:41:00.791Z,1.6
2023-12-31T07:42:02.120Z,1.6
2023-12-31T07:43:00.701Z,1.7
2023-12-31T07:44:00.848Z,1.7
2023-12-31T07:45:01.225Z,1.7
2023-12-31T07:46:00.708Z,1.8
2023-12-31T07:47:00.781Z,1.8
2023-12-31T07:48:00.842Z,1.8
2023-12-31T07:49:00.702Z,1.8
2023-12-31T07:50:02.316Z,1.9
2023-12-31T07:51:00.667Z,1.9
2023-12-31T07:52:00.874Z,1.9
2023-12-31T07:53:00.700Z,1.9
2023-12-31T07:54:00.659Z,1.9
2023-12-31T07:55:02.848Z,1.9
2023-12-31T07:56:00.753Z,1.9
2023-12-31T07:57:00.745Z,1.9
2023-12-31T07:58:00.693Z,1.9
2023-12-31T07:59:00.723Z,1.9
2023-12-31T08:00:02.864Z,1.9
2023-12-31T08:01:00.893Z,1.9
2023-12-31T08:02:01.291Z,2.0
2023-12-31T08:03:00.765Z,2.0
2023-12-31T08:04:00.719Z,2.0
2023-12-31T08:05:00.866Z,2.1
2023-12-31T08:06:00.750Z,2.1
2023-12-31T08:07:00.808Z,2.1
2023-12-31T08:08:00.720Z,2.1
2023-12-31T08:09:00.708Z,2.2
2023-12-31T08:10:00.666Z,2.2
2023-12-31T08:11:03.718Z,2.3
2023-12-31T08:12:00.679Z,2.3
2023-12-31T08:13:00.835Z,2.3
2023-12-31T08:14:00.821Z,2.4
2023-12-31T08:15:00.661Z,2.4
2023-12-31T08:16:00.943Z,2.4
2023-12-31T08:17:00.970Z,2.4
2023-12-31T08:18:00.862Z,2.4
2023-12-31T08:19:00.758Z,2.5
2023-12-31T08:20:00.876Z,2.4
2023-12-31T08:21:00.706Z,2.4
2023-12-31T08:22:00.712Z,2.4
2023-12-31T08:23:00.829Z,2.5
2023-12-31T08:24:00.667Z,2.4
2023-12-31T08:25:00.732Z,2.4
2023-12-31T08:26:00.711Z,2.4
2023-12-31T08:27:00.723Z,2.4
2023-12-31T08:28:00.702Z,2.4
2023-12-31T08:29:01.560Z,2.4
2023-12-31T08:30:00.689Z,2.3
2023-12-31T08:31:00.806Z,2.3
2023-12-31T08:32:00.782Z,2.2
2023-12-31T08:33:00.779Z,2.3
2023-12-31T08:34:00.757Z,2.3
2023-12-31T08:35:00.815Z,2.4
2023-12-31T08:36:00.744Z,2.4
2023-12-31T08:37:00.650Z,2.5
2023-12-31T08:38:00.686Z,2.4
2023-12-31T08:39:00.670Z,2.4
2023-12-31T08:40:00.679Z,2.5
2023-12-31T08:41:00.743Z,2.4
2023-12-31T08:42:00.676Z,2.4
2023-12-31T08:43:00.769Z,2.4
2023-12-31T08:44:00.806Z,2.5
2023-12-31T08:45:06.355Z,2.5
2023-12-31T08:46:00.662Z,2.5
2023-12-31T08:47:00.739Z,2.6
2023-12-31T08:48:00.787Z,2.5
2023-12-31T08:49:01.017Z,2.5
2023-12-31T08:50:00.782Z,2.5
2023-12-31T08:51:00.658Z,2.5
2023-12-31T08:52:00.660Z,2.5
2023-12-31T08:53:00.682Z,2.6
2023-12-31T08:54:00.694Z,2.6
2023-12-31T08:55:00.893Z,2.7
2023-12-31T08:56:00.699Z,2.8
2023-12-31T08:57:00.656Z,2.8
2023-12-31T08:58:00.707Z,2.8
2023-12-31T08:59:00.732Z,2.8
2023-12-31T09:00:00.944Z,2.8
2023-12-31T09:01:00.681Z,2.8
2023-12-31T09:02:00.701Z,2.9
2023-12-31T09:03:00.671Z,2.8
2023-12-31T09:04:00.726Z,2.8
2023-12-31T09:05:00.974Z,2.8
2023-12-31T09:06:00.655Z,2.8
2023-12-31T09:07:00.939Z,2.8
2023-12-31T09:08:01.814Z,2.7
2023-12-31T09:09:00.705Z,2.8
2023-12-31T09:10:01.564Z,2.8
2023-12-31T09:11:00.763Z,2.8
2023-12-31T09:12:00.673Z,2.8
2023-12-31T09:13:00.730Z,2.8
2023-12-31T09:14:00.792Z,2.9
2023-12-31T09:15:00.748Z,2.8
2023-12-31T09:16:00.750Z,2.8
2023-12-31T09:17:00.697Z,2.8
2023-12-31T09:18:00.772Z,2.9
2023-12-31T09:19:00.693Z,2.8
2023-12-31T09:20:01.352Z,2.8
2023-12-31T09:21:00.706Z,2.8
2023-12-31T09:22:00.721Z,2.8
2023-12-31T09:23:00.774Z,2.8
2023-12-31T09:24:00.666Z,2.8
2023-12-31T09:25:01.095Z,2.8
2023-12-31T09:26:00.750Z,2.8
2023-12-31T09:27:00.848Z,2.8
2023-12-31T09:28:00.821Z,2.9
2023-12-31T09:29:00.738Z,2.8
2023-12-31T09:30:00.818Z,2.8
2023-12-31T09:31:00.785Z,2.8
2023-12-31T09:32:00.778Z,2.8
2023-12-31T09:33:00.877Z,2.8
2023-12-31T09:34:00.781Z,2.8
2023-12-31T09:35:00.776Z,2.8
2023-12-31T09:36:02.954Z,2.8
2023-12-31T09:37:00.716Z,2.8
2023-12-31T09:38:00.759Z,2.8
2023-12-31T09:39:00.664Z,2.8
2023-12-31T09:40:00.668Z,2.8
2023-12-31T09:41:05.273Z,2.8
2023-12-31T09:42:08.149Z,2.8
2023-12-31T09:43:02.414Z,2.8
2023-12-31T09:44:02.704Z,2.8
2023-12-31T09:45:02.875Z,2.9
2023-12-31T09:46:03.886Z,2.9
2023-12-31T09:47:09.598Z,2.9
2023-12-31T09:48:01.309Z,2.9
2023-12-31T09:49:00.974Z,3.0
2023-12-31T09:50:01.852Z,3.0
2023-12-31T09:51:00.724Z,3.0
2023-12-31T09:52:02.370Z,3.0
2023-12-31T09:53:01.943Z,3.0
2023-12-31T09:54:04.595Z,3.0
2023-12-31T09:55:01.188Z,3.0
2023-12-31T09:56:02.011Z,3.0
2023-12-31T09:57:01.531Z,3.1
2023-12-31T09:58:03.118Z,3.1
2023-12-31T10:00:01.866Z,3.1
2023-12-31T10:01:00.827Z,3.1
2023-12-31T10:02:04.206Z,3.1
2023-12-31T10:03:02.421Z,3.1
2023-12-31T10:04:01.116Z,3.1
2023-12-31T10:05:02.243Z,3.1
2023-12-31T10:06:01.945Z,3.1
2023-12-31T10:07:00.683Z,3.1
2023-12-31T10:08:00.741Z,3.1
2023-12-31T10:09:01.517Z,3.1
2023-12-31T10:10:00.915Z,3.1
2023-12-31T10:11:01.893Z,3.1
2023-12-31T10:12:00.672Z,3.2
2023-12-31T10:13:00.871Z,3.2
2023-12-31T10:14:00.688Z,3.2
2023-12-31T10:15:00.804Z,3.2
2023-12-31T10:16:11.296Z,3.2
2023-12-31T10:17:06.942Z,3.2
2023-12-31T10:18:03.719Z,3.2
2023-12-31T10:19:00.879Z,3.2
2023-12-31T10:20:01.931Z,3.3
2023-12-31T10:21:00.659Z,3.2
2023-12-31T10:22:04.785Z,3.3
2023-12-31T10:23:00.818Z,3.3
2023-12-31T10:24:00.698Z,3.3
2023-12-31T10:25:17.001Z,3.3
2023-12-31T10:26:00.789Z,3.3
2023-12-31T10:27:01.533Z,3.3
2023-12-31T10:28:00.679Z,3.3
2023-12-31T10:29:01.085Z,3.3
2023-12-31T10:30:00.701Z,3.3
2023-12-31T10:31:02.629Z,3.3
2023-12-31T10:32:01.124Z,3.3
2023-12-31T10:33:11.455Z,3.3
2023-12-31T10:34:17.686Z,3.4
2023-12-31T10:35:03.351Z,3.4
2023-12-31T10:36:04.305Z,3.4
2023-12-31T10:37:02.404Z,3.4
2023-12-31T10:38:03.105Z,3.4
2023-12-31T10:39:00.726Z,3.4
2023-12-31T10:40:17.556Z,3.4
2023-12-31T10:41:08.187Z,3.4
2023-12-31T10:42:02.110Z,3.4
2023-12-31T10:43:06.779Z,3.4
2023-12-31T10:44:02.050Z,3.4
2023-12-31T10:45:01.591Z,3.4
2023-12-31T10:46:01.861Z,3.4
2023-12-31T10:47:09.141Z,3.4
2023-12-31T10:48:01.116Z,3.4
2023-12-31T10:49:03.502Z,3.5
2023-12-31T10:50:01.111Z,3.5
2023-12-31T10:51:05.773Z,3.5
2023-12-31T10:52:03.216Z,3.5
2023-12-31T10:53:03.379Z,3.5
2023-12-31T10:54:05.674Z,3.5
2023-12-31T10:55:01.795Z,3.5
2023-12-31T10:56:01.368Z,3.5
2023-12-31T10:57:01.256Z,3.5
2023-12-31T10:58:01.268Z,3.5
2023-12-31T10:59:01.669Z,3.5
2023-12-31T11:00:00.739Z,3.5
2023-12-31T11:01:01.496Z,3.5
2023-12-31T11:02:01.384Z,3.6
2023-12-31T11:03:04.559Z,3.6
2023-12-31T11:04:03.074Z,3.6
2023-12-31T11:05:01.840Z,3.6
2023-12-31T11:06:00.982Z,3.6
2023-12-31T11:07:01.913Z,3.6
2023-12-31T11:08:01.950Z,3.6
2023-12-31T11:09:01.055Z,3.6
2023-12-31T11:10:01.150Z,3.6
2023-12-31T11:11:00.826Z,3.6
2023-12-31T11:12:01.399Z,3.6
2023-12-31T11:13:03.023Z,3.6
2023-12-31T11:14:02.253Z,3.6
2023-12-31T11:15:17.947Z,3.6
2023-12-31T11:16:05.177Z,3.6
2023-12-31T11:17:27.932Z,3.7
2023-12-31T11:18:14.115Z,3.6
2023-12-31T11:19:43.820Z,3.7
2023-12-31T11:20:08.099Z,3.7
2023-12-31T11:21:12.194Z,3.7
2023-12-31T11:22:19.637Z,3.8
2023-12-31T11:23:16.534Z,3.8
2023-12-31T11:24:05.122Z,3.8
2023-12-31T11:25:00.684Z,3.8
2023-12-31T11:26:00.902Z,3.8
2023-12-31T11:27:08.140Z,3.8
2023-12-31T11:28:00.670Z,3.9
2023-12-31T11:29:01.275Z,3.8
2023-12-31T11:30:01.287Z,3.8
2023-12-31T11:31:09.275Z,3.8
2023-12-31T11:32:03.212Z,3.8
2023-12-31T11:33:00.741Z,3.8
2023-12-31T11:34:00.799Z,3.8
2023-12-31T11:35:00.798Z,3.8
2023-12-31T11:36:03.802Z,3.8
2023-12-31T11:37:00.717Z,3.8
2023-12-31T11:38:03.795Z,3.8
2023-12-31T11:39:02.634Z,3.9
2023-12-31T11:40:00.697Z,3.9
2023-12-31T11:41:00.942Z,3.9
2023-12-31T11:42:11.027Z,3.9
2023-12-31T11:43:09.411Z,3.9
2023-12-31T11:44:00.962Z,3.9
2023-12-31T11:45:01.166Z,4.0
2023-12-31T11:46:00.691Z,4.0
2023-12-31T11:47:00.783Z,4.0
2023-12-31T11:48:02.943Z,4.0
2023-12-31T11:49:00.917Z,4.0
2023-12-31T11:50:07.986Z,4.0
2023-12-31T11:51:00.674Z,4.0
2023-12-31T11:52:00.700Z,4.0
2023-12-31T11:53:00.703Z,4.0
2023-12-31T11:54:03.712Z,4.0
2023-12-31T11:55:00.771Z,4.0
2023-12-31T11:56:01.135Z,4.1
2023-12-31T11:57:02.363Z,4.1
2023-12-31T11:58:01.633Z,4.1
2023-12-31T11:59:00.808Z,4.1
2023-12-31T12:00:01.028Z,4.1
2023-12-31T12:01:00.712Z,4.1
2023-12-31T12:02:02.372Z,4.1
2023-12-31T12:03:02.598Z,4.2
2023-12-31T12:04:00.712Z,4.2
2023-12-31T12:05:01.429Z,4.2
2023-12-31T12:06:01.330Z,4.2
2023-12-31T12:07:01.366Z,4.2
2023-12-31T12:08:00.798Z,4.2
2023-12-31T12:09:00.657Z,4.3
2023-12-31T12:10:03.039Z,4.3
2023-12-31T12:11:01.252Z,4.3
2023-12-31T12:12:02.030Z,4.3
2023-12-31T12:13:01.284Z,4.3
2023-12-31T12:14:01.050Z,4.3
2023-12-31T12:15:02.702Z,4.3
2023-12-31T12:16:00.717Z,4.3
2023-12-31T12:17:01.270Z,4.3
2023-12-31T12:18:00.963Z,4.3
2023-12-31T12:19:00.815Z,4.3
2023-12-31T12:20:00.959Z,4.4
2023-12-31T12:21:00.878Z,4.4
2023-12-31T12:22:00.882Z,4.4
2023-12-31T12:23:00.981Z,4.4
2023-12-31T12:24:03.125Z,4.4
2023-12-31T12:25:01.240Z,4.4
2023-12-31T12:26:02.684Z,4.4
2023-12-31T12:27:04.074Z,4.4
2023-12-31T12:28:00.681Z,4.5
2023-12-31T12:29:01.158Z,4.5
2023-12-31T12:30:00.866Z,4.5
2023-12-31T12:31:00.696Z,4.5
2023-12-31T12:32:00.757Z,4.5
2023-12-31T12:33:00.926Z,4.6
2023-12-31T12:34:03.177Z,4.6
2023-12-31T12:35:00.729Z,4.6
2023-12-31T12:36:01.545Z,4.6
2023-12-31T12:37:02.022Z,4.6
2023-12-31T12:38:00.846Z,4.6
2023-12-31T12:39:00.747Z,4.7
2023-12-31T12:40:00.680Z,4.7
2023-12-31T12:41:01.095Z,4.7
2023-12-31T12:42:00.690Z,4.7
2023-12-31T12:43:00.697Z,4.7
2023-12-31T12:44:05.734Z,4.7
2023-12-31T12:45:00.761Z,4.8
2023-12-31T12:46:02.260Z,4.8
2023-12-31T12:47:02.483Z,4.8
2023-12-31T12:48:01.653Z,4.8
2023-12-31T12:49:01.025Z,4.8
2023-12-31T12:50:00.750Z,4.8
2023-12-31T12:51:00.722Z,4.8
2023-12-31T12:52:00.723Z,4.8
2023-12-31T12:53:00.832Z,4.8
2023-12-31T12:54:01.484Z,4.8
2023-12-31T12:55:00.733Z,4.8
2023-12-31T12:56:00.704Z,4.8
2023-12-31T12:57:00.747Z,4.8
2023-12-31T12:58:00.655Z,4.8
2023-12-31T12:59:01.000Z,4.8
2023-12-31T13:00:00.805Z,4.8
2023-12-31T13:01:00.756Z,4.8
2023-12-31T13:02:00.798Z,4.8
2023-12-31T13:03:00.747Z,4.9
2023-12-31T13:04:00.719Z,4.9
2023-12-31T13:05:00.859Z,4.9
2023-12-31T13:06:00.696Z,4.9
2023-12-31T13:07:00.656Z,4.9
2023-12-31T13:08:00.695Z,4.9
2023-12-31T13:09:00.666Z,4.9
2023-12-31T13:10:00.667Z,4.9
2023-12-31T13:11:01.173Z,4.9
2023-12-31T13:12:01.202Z,4.9
2023-12-31T13:13:00.669Z,4.9
2023-12-31T13:14:00.748Z,4.9
2023-12-31T13:15:00.725Z,4.9
2023-12-31T13:16:06.967Z,4.9
2023-12-31T13:17:01.055Z,4.9
2023-12-31T13:18:00.899Z,4.9
2023-12-31T13:19:00.821Z,4.9
2023-12-31T13:20:00.812Z,4.9
2023-12-31T13:21:00.663Z,4.9
2023-12-31T13:22:05.041Z,4.9
2023-12-31T13:23:00.923Z,4.9
2023-12-31T13:24:00.682Z,4.9
2023-12-31T13:25:00.671Z,4.9
2023-12-31T13:26:00.691Z,4.9
2023-12-31T13:27:00.683Z,4.9
2023-12-31T13:28:00.684Z,5.0
2023-12-31T13:29:03.968Z,5.0
2023-12-31T13:30:00.652Z,5.0
2023-12-31T13:31:00.747Z,5.0
2023-12-31T13:32:00.714Z,5.0
2023-12-31T13:33:02.947Z,5.0
2023-12-31T13:34:00.709Z,5.0
2023-12-31T13:35:00.685Z,5.0
2023-12-31T13:36:00.694Z,5.0
2023-12-31T13:37:00.682Z,5.0
2023-12-31T13:38:02.649Z,5.0
2023-12-31T13:39:00.709Z,5.1
2023-12-31T13:40:00.675Z,5.1
2023-12-31T13:41:00.767Z,5.1
2023-12-31T13:42:00.780Z,5.1
2023-12-31T13:43:00.731Z,5.1
2023-12-31T13:44:00.833Z,5.1
2023-12-31T13:45:00.698Z,5.1
2023-12-31T13:46:00.669Z,5.1
2023-12-31T13:47:00.878Z,5.1